Time;durP1;ratioP1;P1;durP2;ratioP2;P2;SDS_P1;SDS_P2;PMS_P1;PMS_P2;Temp;Humidity;BMP_temperature;BMP_pressure;BME280_temperature;BME280_humidity;BME280_pressure;Samples;Min_cycle;Max_cycle;Signal;HPM_P1;HPM_P2
2022/02/16 00:00:00;;;;;;;2.60;2.47;;;7.90;99.90;;;;;;5089540;28;20450;-39
2022/02/16 00:02:26;;;;;;;3.00;2.80;;;7.90;99.90;;;;;;5087964;28;20454;-45
2022/02/16 00:04:51;;;;;;;3.20;2.60;;;8.10;99.90;;;;;;5089215;28;20462;-41
2022/02/16 00:07:17;;;;;;;3.20;3.00;;;7.90;99.90;;;;;;5080101;28;20193;-41
2022/02/16 00:09:43;;;;;;;2.90;2.70;;;7.90;99.90;;;;;;5089426;28;20193;-39
2022/02/16 00:12:09;;;;;;;2.80;2.60;;;7.70;99.90;;;;;;5089495;28;20192;-40
2022/02/16 00:14:35;;;;;;;2.77;2.57;;;7.90;99.90;;;;;;5088411;28;20184;-42
2022/02/16 00:17:01;;;;;;;2.70;2.50;;;7.80;99.90;;;;;;5089772;28;20645;-41
2022/02/16 00:19:27;;;;;;;2.30;2.10;;;7.90;99.90;;;;;;5088336;28;20791;-40
2022/02/16 00:21:53;;;;;;;2.63;2.43;;;7.90;99.90;;;;;;5081831;28;20484;-41
2022/02/16 00:24:19;;;;;;;2.13;2.03;;;8.00;99.90;;;;;;5086358;28;20271;-43
2022/02/16 00:26:45;;;;;;;2.83;2.50;;;8.00;99.90;;;;;;5089388;28;20788;-41
2022/02/16 00:29:11;;;;;;;2.60;2.40;;;7.80;99.90;;;;;;5089540;28;20410;-44
2022/02/16 00:31:40;;;;;;;5.60;2.37;;;8.00;99.90;;;;;;5088473;28;20420;-40
2022/02/16 00:34:07;;;;;;;2.77;2.57;;;7.90;99.90;;;;;;5088309;28;20643;-40
2022/02/16 00:36:34;;;;;;;3.90;3.60;;;8.00;99.90;;;;;;5087360;28;20476;-40
2022/02/16 00:38:59;;;;;;;2.10;2.00;;;8.00;99.90;;;;;;5083603;28;20782;-40
2022/02/16 00:41:25;;;;;;;2.57;2.37;;;8.20;99.90;;;;;;5088294;28;20454;-40
2022/02/16 00:43:51;;;;;;;2.80;2.60;;;7.80;99.90;;;;;;5089364;28;20220;-40
2022/02/16 00:46:16;;;;;;;4.53;3.23;;;7.80;99.90;;;;;;5088313;28;20173;-39
2022/02/16 00:48:42;;;;;;;3.23;2.30;;;7.90;99.90;;;;;;5089088;28;20184;-41
2022/02/16 00:51:08;;;;;;;2.80;2.60;;;8.10;99.90;;;;;;5086162;28;20801;-39
2022/02/16 00:53:34;;;;;;;2.67;2.47;;;7.90;99.90;;;;;;5080602;28;20199;-40
2022/02/16 00:56:00;;;;;;;2.90;2.70;;;8.20;99.90;;;;;;5088793;28;20295;-41
2022/02/16 00:58:26;;;;;;;2.63;2.43;;;8.10;99.90;;;;;;5088934;28;20509;-42
2022/02/16 01:00:52;;;;;;;2.60;2.40;;;7.90;99.90;;;;;;5088304;28;20507;-42
2022/02/16 01:03:17;;;;;;;2.40;2.20;;;8.00;99.90;;;;;;5088632;28;20455;-40
2022/02/16 01:05:45;;;;;;;2.27;2.07;;;8.10;99.90;;;;;;5088611;28;20188;-43
2022/02/16 01:08:12;;;;;;;2.50;2.30;;;8.00;99.90;;;;;;5079888;28;20184;-40
2022/02/16 01:10:39;;;;;;;2.33;2.13;;;8.10;99.90;;;;;;5088311;28;20432;-44
2022/02/16 01:13:04;;;;;;;2.33;2.13;;;8.00;99.90;;;;;;5087334;28;20426;-40
2022/02/16 01:15:30;;;;;;;2.80;2.60;;;8.00;99.90;;;;;;5087294;28;20439;-40
2022/02/16 01:17:56;;;;;;;2.67;2.47;;;7.90;99.90;;;;;;5088729;28;20188;-39
2022/02/16 01:20:22;;;;;;;2.60;2.40;;;8.00;99.90;;;;;;5087387;28;20450;-42
2022/02/16 01:22:48;;;;;;;3.03;2.23;;;8.00;99.90;;;;;;5078230;28;20233;-42
2022/02/16 01:25:14;;;;;;;2.60;2.40;;;8.10;99.90;;;;;;5088232;28;20501;-40
2022/02/16 01:27:40;;;;;;;2.60;2.40;;;8.00;99.90;;;;;;5088395;28;20417;-39
2022/02/16 01:30:07;;;;;;;2.73;2.53;;;8.10;99.90;;;;;;5087501;28;20461;-40
2022/02/16 01:32:33;;;;;;;2.50;2.37;;;8.10;99.90;;;;;;5087093;28;20294;-39
2022/02/16 01:34:58;;;;;;;3.30;2.70;;;8.10;99.90;;;;;;5087936;28;20967;-44
2022/02/16 01:37:24;;;;;;;2.70;2.50;;;8.00;99.90;;;;;;5078353;28;20439;-42
2022/02/16 01:39:50;;;;;;;2.40;2.20;;;8.30;99.90;;;;;;5084149;28;20360;-43
2022/02/16 01:42:17;;;;;;;2.13;2.03;;;8.10;99.90;;;;;;5088172;28;20188;-40
2022/02/16 01:44:43;;;;;;;2.60;2.40;;;8.10;99.90;;;;;;5088185;28;20279;-40
2022/02/16 01:47:09;;;;;;;2.10;2.00;;;8.10;99.90;;;;;;5087824;28;20509;-44
2022/02/16 01:49:36;;;;;;;2.50;2.30;;;8.10;99.90;;;;;;5087932;28;20422;-43
2022/02/16 01:52:03;;;;;;;2.77;2.57;;;8.00;99.90;;;;;;5080770;28;20181;-42
2022/02/16 01:54:29;;;;;;;1.87;1.77;;;8.10;99.90;;;;;;5085819;28;20414;-41
2022/02/16 01:56:55;;;;;;;2.70;2.20;;;8.10;99.90;;;;;;5087524;28;20564;-40
2022/02/16 01:59:23;;;;;;;2.60;2.40;;;8.20;99.90;;;;;;5087625;28;20180;-43
2022/02/16 02:01:49;;;;;;;2.00;1.90;;;8.00;99.90;;;;;;5086818;28;20418;-41
2022/02/16 02:04:17;;;;;;;2.70;2.50;;;8.40;99.90;;;;;;5087765;28;20437;-40
2022/02/16 02:06:43;;;;;;;2.10;2.00;;;8.10;99.90;;;;;;5086204;28;21028;-40
2022/02/16 02:09:10;;;;;;;2.30;2.20;;;8.30;99.90;;;;;;5081509;28;20419;-40
2022/02/16 02:11:36;;;;;;;2.50;2.30;;;8.00;99.90;;;;;;5086568;28;20426;-40
2022/02/16 02:14:04;;;;;;;2.60;2.40;;;8.10;99.90;;;;;;5086278;28;20476;-40
2022/02/16 02:16:30;;;;;;;2.67;2.47;;;8.30;99.90;;;;;;5087223;28;20240;-39
2022/02/16 02:18:56;;;;;;;2.20;2.00;;;8.10;99.90;;;;;;5087608;28;20450;-44
2022/02/16 02:21:23;;;;;;;2.40;2.20;;;8.10;99.90;;;;;;5086895;28;20683;-42
2022/02/16 02:23:50;;;;;;;2.20;2.00;;;8.10;99.90;;;;;;5075989;28;20883;-40
2022/02/16 02:26:17;;;;;;;2.63;2.40;;;8.20;99.90;;;;;;5087533;28;20850;-39
2022/02/16 02:28:44;;;;;;;3.10;2.80;;;8.30;99.90;;;;;;5087246;28;20419;-40
2022/02/16 02:31:10;;;;;;;2.40;2.20;;;8.30;99.90;;;;;;5086626;28;20472;-40
2022/02/16 02:33:37;;;;;;;2.50;2.30;;;8.30;99.90;;;;;;5087505;28;20882;-43
2022/02/16 02:36:07;;;;;;;2.83;2.63;;;8.20;99.90;;;;;;5087452;28;20430;-40
2022/02/16 02:38:33;;;;;;;3.10;2.90;;;8.30;99.90;;;;;;5076360;28;20789;-41
2022/02/16 02:41:02;;;;;;;2.93;2.73;;;8.10;99.90;;;;;;5086722;28;20454;-42
2022/02/16 02:43:29;;;;;;;3.00;2.80;;;8.10;99.90;;;;;;5085883;28;20422;-40
2022/02/16 02:45:55;;;;;;;2.83;2.63;;;8.30;99.90;;;;;;5087498;28;20449;-41
2022/02/16 02:48:22;;;;;;;2.80;2.60;;;8.20;99.90;;;;;;5085661;28;20418;-41
2022/02/16 02:50:49;;;;;;;2.83;2.63;;;8.40;99.90;;;;;;5086960;28;20450;-41
2022/02/16 02:53:15;;;;;;;3.00;2.80;;;8.30;99.90;;;;;;5082012;28;21039;-40
2022/02/16 02:55:41;;;;;;;3.10;2.90;;;8.30;99.90;;;;;;5087187;28;20617;-40
2022/02/16 02:58:06;;;;;;;3.40;3.10;;;8.30;99.90;;;;;;5085665;28;20259;-42
2022/02/16 03:00:32;;;;;;;2.67;2.57;;;8.30;99.90;;;;;;5086693;28;20269;-39
2022/02/16 03:02:58;;;;;;;2.77;2.57;;;8.20;99.90;;;;;;5086672;28;20181;-40
2022/02/16 03:05:23;;;;;;;3.27;2.97;;;8.30;99.90;;;;;;5085909;28;20234;-46
2022/02/16 03:07:50;;;;;;;2.77;2.57;;;8.50;99.90;;;;;;5080451;28;20766;-44
2022/02/16 03:10:16;;;;;;;3.33;3.13;;;8.20;99.90;;;;;;5086171;28;20184;-42
2022/02/16 03:12:42;;;;;;;3.37;3.07;;;8.40;99.90;;;;;;5090489;28;20483;-43
2022/02/16 03:15:08;;;;;;;3.80;3.50;;;8.20;99.90;;;;;;5089477;28;20472;-43
2022/02/16 03:17:34;;;;;;;2.90;2.70;;;8.50;99.90;;;;;;5090801;28;20184;-42
2022/02/16 03:19:59;;;;;;;2.90;2.70;;;8.40;99.90;;;;;;5090068;28;20464;-40
2022/02/16 03:22:25;;;;;;;3.20;3.00;;;8.50;99.90;;;;;;5087939;28;20295;-42
2022/02/16 03:24:51;;;;;;;2.97;2.77;;;8.50;99.90;;;;;;5083358;28;20410;-40
2022/02/16 03:27:16;;;;;;;3.13;2.80;;;8.50;99.90;;;;;;5090709;28;20189;-39
2022/02/16 03:29:42;;;;;;;3.17;2.97;;;8.50;99.90;;;;;;5090049;28;20283;-42
2022/02/16 03:32:08;;;;;;;3.10;2.90;;;8.60;99.90;;;;;;5090567;28;20803;-41
2022/02/16 03:34:33;;;;;;;3.13;2.93;;;8.40;99.90;;;;;;5090597;28;20188;-45
2022/02/16 03:36:59;;;;;;;3.70;3.40;;;8.50;99.90;;;;;;5090670;28;20710;-39
2022/02/16 03:39:25;;;;;;;3.50;3.20;;;8.60;99.90;;;;;;5082327;28;20184;-45
2022/02/16 03:41:50;;;;;;;4.23;3.93;;;8.50;99.90;;;;;;5089800;28;20216;-43
2022/02/16 03:44:16;;;;;;;3.70;3.40;;;8.50;99.90;;;;;;5090968;28;20181;-43
2022/02/16 03:46:43;;;;;;;4.23;3.93;;;8.50;99.90;;;;;;5090372;28;20357;-40
2022/02/16 03:49:09;;;;;;;4.37;3.00;;;8.60;99.90;;;;;;5090470;28;20422;-43
2022/02/16 03:51:34;;;;;;;3.37;3.07;;;8.50;99.90;;;;;;5089500;28;20507;-43
2022/02/16 03:54:00;;;;;;;4.87;3.30;;;8.50;99.90;;;;;;5083545;28;20467;-40
2022/02/16 03:56:26;;;;;;;3.43;3.13;;;8.60;99.90;;;;;;5088863;28;20884;-41
2022/02/16 03:58:52;;;;;;;3.23;2.93;;;8.50;99.90;;;;;;5090475;28;20188;-47
2022/02/16 04:01:18;;;;;;;2.80;2.60;;;8.60;99.90;;;;;;5089339;28;20216;-40
2022/02/16 04:03:43;;;;;;;2.70;2.50;;;8.60;99.90;;;;;;5090044;28;20192;-40
2022/02/16 04:06:09;;;;;;;3.03;2.73;;;8.40;99.90;;;;;;5089899;28;20180;-40
2022/02/16 04:08:35;;;;;;;3.40;2.80;;;8.70;99.90;;;;;;5080972;28;20355;-43
2022/02/16 04:11:01;;;;;;;2.43;2.23;;;8.50;99.90;;;;;;5088163;28;20192;-41
2022/02/16 04:13:26;;;;;;;2.60;2.40;;;8.50;99.90;;;;;;5088411;28;20199;-40
2022/02/16 04:15:52;;;;;;;2.03;1.80;;;8.50;99.90;;;;;;5089910;28;20188;-40
2022/02/16 04:18:18;;;;;;;2.57;2.20;;;8.50;99.90;;;;;;5089462;28;20195;-43
2022/02/16 04:20:43;;;;;;;2.33;2.10;;;8.50;99.90;;;;;;5086595;28;20250;-42
2022/02/16 04:23:09;;;;;;;1.93;1.83;;;8.40;99.90;;;;;;5083684;28;20181;-40
2022/02/16 04:25:36;;;;;;;2.47;2.07;;;8.60;99.90;;;;;;5082273;28;20215;-41
2022/02/16 04:28:04;;;;;;;2.57;1.87;;;8.60;99.90;;;;;;5089542;28;20311;-41
2022/02/16 04:30:33;;;;;;;1.93;1.80;;;8.50;99.90;;;;;;5088897;28;20423;-41
2022/02/16 04:32:59;;;;;;;2.40;2.00;;;8.60;99.90;;;;;;5089318;28;20422;-39
2022/02/16 04:35:25;;;;;;;3.27;1.87;;;8.90;99.90;;;;;;5089483;28;20804;-40
2022/02/16 04:37:51;;;;;;;1.50;1.40;;;8.60;99.90;;;;;;5084853;28;20180;-42
2022/02/16 04:40:17;;;;;;;1.93;1.80;;;8.50;99.90;;;;;;5080259;28;20457;-40
2022/02/16 04:42:43;;;;;;;1.77;1.67;;;8.60;99.90;;;;;;5089157;28;20972;-39
2022/02/16 04:45:09;;;;;;;1.37;1.27;;;8.70;99.90;;;;;;5089173;28;20469;-40
2022/02/16 04:47:35;;;;;;;1.30;1.20;;;8.50;99.90;;;;;;5089251;28;20501;-45
2022/02/16 04:50:03;;;;;;;1.67;1.57;;;8.40;99.90;;;;;;5088398;28;20422;-39
2022/02/16 04:52:34;;;;;;;1.40;1.30;;;8.70;99.90;;;;;;5089039;28;20471;-43
2022/02/16 04:55:09;;;;;;;1.27;1.17;;;8.80;99.90;;;;;;5080422;28;20442;-40
2022/02/16 04:57:34;;;;;;;1.40;1.17;;;8.60;99.90;;;;;;5088826;28;20413;-45
2022/02/16 05:00:01;;;;;;;1.87;1.23;;;8.60;99.90;;;;;;5088186;28;20987;-42
2022/02/16 05:02:27;;;;;;;1.50;1.40;;;8.60;99.90;;;;;;5088779;28;20180;-42
2022/02/16 05:04:54;;;;;;;1.87;1.30;;;8.60;99.90;;;;;;5088665;28;20517;-40
2022/02/16 05:07:22;;;;;;;1.17;1.07;;;8.60;99.90;;;;;;5088595;28;20514;-40
2022/02/16 05:09:48;;;;;;;1.93;1.33;;;8.60;99.90;;;;;;5076205;28;20426;-40
2022/02/16 05:12:14;;;;;;;1.27;1.17;;;8.60;99.90;;;;;;5088508;28;20629;-42
2022/02/16 05:14:41;;;;;;;1.40;1.30;;;8.60;99.90;;;;;;5087310;28;20438;-43
2022/02/16 05:17:07;;;;;;;3.83;1.37;;;8.70;99.90;;;;;;5088508;28;20453;-40
2022/02/16 05:19:32;;;;;;;1.60;1.20;;;8.70;99.90;;;;;;5087912;28;20971;-41
2022/02/16 05:21:59;;;;;;;1.90;1.80;;;8.80;99.90;;;;;;5088004;28;20490;-40
2022/02/16 05:24:24;;;;;;;1.40;1.23;;;8.70;99.90;;;;;;5080126;28;20185;-45
2022/02/16 05:26:51;;;;;;;2.70;1.70;;;8.60;99.90;;;;;;5088007;28;20927;-40
2022/02/16 05:29:17;;;;;;;1.33;0.87;;;8.60;99.90;;;;;;5088374;28;20518;-44
2022/02/16 05:31:42;;;;;;;1.30;1.20;;;8.50;99.90;;;;;;5087143;28;20537;-44
2022/02/16 05:34:08;;;;;;;3.57;1.40;;;8.90;99.90;;;;;;5088435;28;20192;-39
2022/02/16 05:36:34;;;;;;;1.30;1.20;;;8.80;99.90;;;;;;5088251;28;20446;-41
2022/02/16 05:39:00;;;;;;;0.80;0.80;;;8.60;99.90;;;;;;5081511;28;20431;-40
2022/02/16 05:41:27;;;;;;;1.10;1.00;;;8.70;99.90;;;;;;5085016;28;20468;-40
2022/02/16 05:43:53;;;;;;;1.10;0.93;;;8.70;99.90;;;;;;5088341;28;20655;-40
2022/02/16 05:46:19;;;;;;;1.30;1.17;;;8.80;99.90;;;;;;5082995;28;21133;-40
2022/02/16 05:48:45;;;;;;;1.10;1.00;;;8.80;99.90;;;;;;5079589;28;20426;-40
2022/02/16 05:51:11;;;;;;;1.13;1.10;;;8.70;99.90;;;;;;5086839;28;20211;-40
2022/02/16 05:53:36;;;;;;;1.50;1.20;;;8.70;99.90;;;;;;5082014;28;21211;-40
2022/02/16 05:56:02;;;;;;;1.00;1.00;;;8.90;99.90;;;;;;5082618;28;20816;-39
2022/02/16 05:58:28;;;;;;;1.10;1.00;;;8.90;99.90;;;;;;5085988;28;20192;-39
2022/02/16 06:00:54;;;;;;;1.00;0.90;;;8.70;99.90;;;;;;5087251;28;20204;-39
2022/02/16 06:03:19;;;;;;;1.70;1.03;;;8.60;99.90;;;;;;5087465;28;20181;-41
2022/02/16 06:05:45;;;;;;;2.03;0.83;;;8.60;99.90;;;;;;5087402;28;20222;-40
2022/02/16 06:08:11;;;;;;;1.10;1.00;;;8.60;99.90;;;;;;5087490;28;20651;-39
2022/02/16 06:10:36;;;;;;;1.30;1.20;;;8.80;99.90;;;;;;5070010;28;20200;-42
2022/02/16 06:13:02;;;;;;;1.30;0.90;;;8.70;99.90;;;;;;5085529;28;20928;-42
2022/02/16 06:15:28;;;;;;;1.03;0.93;;;8.70;99.90;;;;;;5086180;28;20184;-40
2022/02/16 06:17:54;;;;;;;1.97;1.00;;;8.70;99.90;;;;;;5087405;28;20203;-40
2022/02/16 06:20:21;;;;;;;0.97;0.97;;;8.70;99.90;;;;;;5086790;28;20212;-41
2022/02/16 06:22:46;;;;;;;0.77;0.77;;;8.80;99.90;;;;;;5087595;28;20952;-44
2022/02/16 06:25:12;;;;;;;1.37;0.80;;;8.70;99.90;;;;;;5074499;28;20439;-42
2022/02/16 06:27:38;;;;;;;1.53;0.57;;;8.80;99.90;;;;;;5087190;28;20716;-44
2022/02/16 06:30:05;;;;;;;0.80;0.50;;;8.80;99.90;;;;;;5086736;28;20184;-44
2022/02/16 06:32:32;;;;;;;0.93;0.50;;;8.80;99.90;;;;;;5087567;28;20519;-42
2022/02/16 06:34:57;;;;;;;1.13;0.60;;;8.90;99.90;;;;;;5080268;28;20435;-41
2022/02/16 06:37:23;;;;;;;0.70;0.67;;;8.80;99.90;;;;;;5077932;28;20439;-39
2022/02/16 06:39:49;;;;;;;0.50;0.50;;;8.80;99.90;;;;;;5069863;28;20211;-39
2022/02/16 06:42:15;;;;;;;0.93;0.83;;;8.80;99.90;;;;;;5083262;28;20184;-41
2022/02/16 06:44:40;;;;;;;1.20;0.70;;;8.80;99.90;;;;;;5082627;28;20289;-40
2022/02/16 06:47:07;;;;;;;0.60;0.40;;;8.90;99.90;;;;;;5086172;28;20967;-40
2022/02/16 06:49:32;;;;;;;0.57;0.50;;;8.90;99.90;;;;;;5088151;28;20195;-39
2022/02/16 06:51:58;;;;;;;1.03;0.80;;;8.90;99.90;;;;;;5087104;28;20418;-40
2022/02/16 06:54:24;;;;;;;0.60;0.50;;;8.90;99.90;;;;;;5081250;28;20215;-40
2022/02/16 06:56:50;;;;;;;0.50;0.43;;;9.00;99.90;;;;;;5085165;28;20438;-41
2022/02/16 06:59:16;;;;;;;0.80;0.50;;;9.00;99.90;;;;;;5088631;28;20191;-45
2022/02/16 07:01:41;;;;;;;0.70;0.50;;;8.90;99.90;;;;;;5089131;28;20204;-40
2022/02/16 07:04:08;;;;;;;0.90;0.50;;;8.80;99.90;;;;;;5090684;28;20667;-39
2022/02/16 07:06:34;;;;;;;0.70;0.57;;;8.90;99.90;;;;;;5091281;28;20854;-41
2022/02/16 07:09:00;;;;;;;5.23;0.80;;;8.90;99.90;;;;;;5086397;28;20558;-42
2022/02/16 07:11:26;;;;;;;0.70;0.50;;;8.80;99.90;;;;;;5083116;28;20479;-41
2022/02/16 07:13:51;;;;;;;0.70;0.70;;;9.00;99.90;;;;;;5090946;28;20672;-40
2022/02/16 07:16:17;;;;;;;0.80;0.80;;;8.80;99.90;;;;;;5090978;28;20681;-43
2022/02/16 07:18:43;;;;;;;0.60;0.60;;;9.20;99.90;;;;;;5090896;28;20196;-40
2022/02/16 07:21:10;;;;;;;0.60;0.57;;;8.90;99.90;;;;;;5090114;28;20228;-43
2022/02/16 07:23:38;;;;;;;0.60;0.60;;;9.10;99.90;;;;;;5090988;28;20522;-40
2022/02/16 07:26:05;;;;;;;0.67;0.60;;;8.80;99.90;;;;;;5079053;28;21019;-43
2022/02/16 07:28:32;;;;;;;0.60;0.60;;;9.00;99.90;;;;;;5090684;28;20418;-41
2022/02/16 07:30:58;;;;;;;1.10;0.70;;;8.90;99.90;;;;;;5089895;28;20426;-42
2022/02/16 07:33:24;;;;;;;0.80;0.70;;;8.80;99.90;;;;;;5090387;28;20810;-42
2022/02/16 07:35:51;;;;;;;0.63;0.63;;;8.70;99.90;;;;;;5090709;28;20743;-40
2022/02/16 07:38:17;;;;;;;0.80;0.70;;;8.80;99.90;;;;;;5090561;28;20466;-41
2022/02/16 07:40:42;;;;;;;0.70;0.70;;;8.90;99.90;;;;;;5079677;28;20585;-44
2022/02/16 07:43:09;;;;;;;1.17;0.53;;;8.90;99.90;;;;;;5090177;28;20502;-40
2022/02/16 07:45:34;;;;;;;0.87;0.80;;;9.00;99.90;;;;;;5090755;28;20188;-40
2022/02/16 07:48:00;;;;;;;0.70;0.63;;;9.00;99.90;;;;;;5090455;28;20461;-43
2022/02/16 07:50:27;;;;;;;0.60;0.53;;;8.90;99.90;;;;;;5089420;28;20188;-42
2022/02/16 07:52:55;;;;;;;0.70;0.67;;;9.20;99.90;;;;;;5089995;28;20441;-40
2022/02/16 07:55:21;;;;;;;0.70;0.70;;;9.00;99.90;;;;;;5078980;28;20838;-43
2022/02/16 07:57:47;;;;;;;0.80;0.70;;;9.00;99.90;;;;;;5088483;28;20419;-41
2022/02/16 08:00:14;;;;;;;2.57;1.00;;;9.00;99.90;;;;;;5089265;28;20450;-41
2022/02/16 08:02:39;;;;;;;0.77;0.60;;;9.00;99.90;;;;;;5089583;28;20431;-40
2022/02/16 08:05:06;;;;;;;0.67;0.60;;;9.00;99.90;;;;;;5088087;28;20460;-40
2022/02/16 08:07:31;;;;;;;0.73;0.53;;;9.10;99.90;;;;;;5088433;28;20215;-41
2022/02/16 08:09:57;;;;;;;1.03;0.70;;;9.20;99.90;;;;;;5085599;28;20489;-39
2022/02/16 08:12:23;;;;;;;0.60;0.60;;;9.10;99.90;;;;;;5086368;28;20189;-41
2022/02/16 08:14:48;;;;;;;1.20;0.63;;;9.10;99.90;;;;;;5089010;28;20238;-40
2022/02/16 08:17:14;;;;;;;1.37;0.53;;;9.10;99.90;;;;;;5089580;28;20181;-42
2022/02/16 08:19:40;;;;;;;0.60;0.60;;;9.20;99.90;;;;;;5087659;28;20180;-41
2022/02/16 08:22:05;;;;;;;0.73;0.67;;;9.10;99.90;;;;;;5089904;28;20195;-42
2022/02/16 08:24:32;;;;;;;1.07;0.87;;;9.30;99.90;;;;;;5086852;28;20185;-44
2022/02/16 08:27:01;;;;;;;0.80;0.80;;;9.40;99.90;;;;;;5078736;28;20245;-40
2022/02/16 08:29:27;;;;;;;0.90;0.90;;;9.30;99.90;;;;;;5088922;28;20501;-39
2022/02/16 08:31:53;;;;;;;1.10;1.00;;;9.20;99.90;;;;;;5088938;28;20432;-43
2022/02/16 08:34:19;;;;;;;1.00;1.00;;;9.10;99.90;;;;;;5089453;28;20199;-40
2022/02/16 08:36:45;;;;;;;1.37;1.13;;;9.10;99.90;;;;;;5089808;28;20685;-39
2022/02/16 08:39:11;;;;;;;1.17;1.07;;;9.30;99.90;;;;;;5089371;28;20422;-39
2022/02/16 08:41:38;;;;;;;1.73;1.47;;;9.30;99.90;;;;;;5074085;28;20477;-40
2022/02/16 08:44:04;;;;;;;1.47;1.37;;;9.20;99.90;;;;;;5087736;28;20422;-39
2022/02/16 08:46:30;;;;;;;2.30;1.50;;;9.10;99.90;;;;;;5088754;28;20514;-40
2022/02/16 08:49:00;;;;;;;1.37;1.27;;;9.00;99.90;;;;;;5089464;28;20453;-40
2022/02/16 08:51:29;;;;;;;1.70;1.60;;;9.10;99.90;;;;;;5087626;28;20426;-40
2022/02/16 08:53:56;;;;;;;1.63;1.53;;;9.20;99.90;;;;;;5089342;28;20954;-40
2022/02/16 08:56:22;;;;;;;1.30;1.20;;;9.10;99.90;;;;;;5080064;28;20472;-41
2022/02/16 08:58:47;;;;;;;1.50;1.40;;;9.20;99.90;;;;;;5087652;28;20944;-41
2022/02/16 09:01:13;;;;;;;2.00;1.40;;;9.30;99.90;;;;;;5086947;28;20465;-42
2022/02/16 09:03:39;;;;;;;1.63;1.50;;;9.50;99.90;;;;;;5089005;28;20276;-39
2022/02/16 09:06:05;;;;;;;1.83;1.60;;;9.50;99.90;;;;;;5088220;28;20510;-40
2022/02/16 09:08:31;;;;;;;1.77;1.67;;;9.30;99.90;;;;;;5088937;28;20185;-40
2022/02/16 09:10:56;;;;;;;2.30;2.10;;;9.50;99.90;;;;;;5079641;28;20738;-40
2022/02/16 09:13:23;;;;;;;2.03;1.90;;;9.50;99.90;;;;;;5084393;28;20184;-42
2022/02/16 09:15:48;;;;;;;2.00;1.90;;;9.40;99.90;;;;;;5089003;28;20673;-43
2022/02/16 09:18:17;;;;;;;2.70;2.50;;;9.30;99.90;;;;;;5088520;28;20431;-39
2022/02/16 09:20:46;;;;;;;2.50;2.30;;;9.50;99.90;;;;;;5088066;28;20196;-40
2022/02/16 09:23:13;;;;;;;2.20;2.00;;;9.50;99.90;;;;;;5088508;28;20776;-39
2022/02/16 09:25:39;;;;;;;3.00;2.23;;;9.40;99.90;;;;;;5082983;28;20826;-39
2022/02/16 09:28:05;;;;;;;2.63;2.43;;;9.50;99.90;;;;;;5084130;28;20680;-40
2022/02/16 09:30:31;;;;;;;3.67;2.93;;;9.50;99.90;;;;;;5087851;28;20433;-41
2022/02/16 09:32:57;;;;;;;3.17;2.90;;;9.60;99.90;;;;;;5088391;28;20266;-40
2022/02/16 09:35:23;;;;;;;3.03;2.83;;;9.70;99.90;;;;;;5088425;28;20505;-40
2022/02/16 09:37:48;;;;;;;3.67;3.37;;;9.60;99.90;;;;;;5088359;28;20393;-41
2022/02/16 09:40:15;;;;;;;2.73;2.53;;;9.60;99.90;;;;;;5083536;28;20207;-39
2022/02/16 09:42:41;;;;;;;3.27;2.97;;;9.70;99.90;;;;;;5081086;28;20272;-40
2022/02/16 09:45:10;;;;;;;3.07;2.77;;;9.80;99.90;;;;;;5088391;28;20422;-39
2022/02/16 09:47:40;;;;;;;2.60;2.40;;;9.70;99.90;;;;;;5087937;28;20928;-41
2022/02/16 09:50:07;;;;;;;1.60;1.50;;;9.90;99.90;;;;;;5087898;28;20419;-40
2022/02/16 09:52:33;;;;;;;1.83;1.73;;;9.80;99.90;;;;;;5087954;28;20816;-40
2022/02/16 09:54:59;;;;;;;1.30;1.20;;;9.90;99.90;;;;;;5086652;28;20487;-39
2022/02/16 09:57:25;;;;;;;1.17;0.80;;;9.80;99.90;;;;;;5079232;28;20508;-40
2022/02/16 09:59:51;;;;;;;1.37;0.90;;;9.90;99.90;;;;;;5087290;28;20434;-40
2022/02/16 10:02:18;;;;;;;0.90;0.90;;;10.00;99.90;;;;;;5087882;28;20863;-40
2022/02/16 10:04:58;;;;;;;0.70;0.70;;;10.00;99.90;;;;;;5087881;28;20792;-41
2022/02/16 10:07:36;;;;;;;1.03;0.93;;;10.00;99.90;;;;;;5087685;28;20441;-39
2022/02/16 10:10:24;;;;;;;0.70;0.70;;;10.00;99.90;;;;;;5087240;28;20971;-40
2022/02/16 10:12:53;;;;;;;0.70;0.70;;;10.30;99.90;;;;;;5084890;28;20423;-40
2022/02/16 10:15:35;;;;;;;1.23;0.93;;;10.20;99.90;;;;;;5087358;28;20509;-40
2022/02/16 10:18:06;;;;;;;0.93;0.93;;;10.20;99.90;;;;;;5087098;28;20918;-40
2022/02/16 10:20:32;;;;;;;1.27;1.17;;;10.20;99.90;;;;;;5086754;28;20523;-41
2022/02/16 10:22:58;;;;;;;1.13;1.07;;;10.30;99.90;;;;;;5087599;28;20414;-41
2022/02/16 10:25:32;;;;;;;1.80;1.60;;;10.30;99.90;;;;;;5084785;28;20211;-40
2022/02/16 10:28:09;;;;;;;1.50;1.40;;;10.30;99.90;;;;;;5084095;28;20674;-39
2022/02/16 10:30:38;;;;;;;1.53;1.43;;;10.40;99.90;;;;;;5085512;28;20422;-40
2022/02/16 10:33:27;;;;;;;1.50;1.40;;;10.40;99.90;;;;;;5087139;28;20513;-41
2022/02/16 10:36:07;;;;;;;1.57;1.47;;;10.60;99.90;;;;;;5086507;28;20742;-40
2022/02/16 10:38:52;;;;;;;1.77;1.63;;;10.30;99.90;;;;;;5086399;28;20863;-40
2022/02/16 10:41:19;;;;;;;2.10;1.90;;;10.40;99.90;;;;;;5077088;28;20486;-40
2022/02/16 10:43:44;;;;;;;1.70;1.60;;;10.50;99.90;;;;;;5078911;28;20867;-39
2022/02/16 10:46:16;;;;;;;2.10;1.43;;;10.60;99.90;;;;;;5087007;28;20897;-39
2022/02/16 10:48:42;;;;;;;1.30;1.20;;;10.50;99.90;;;;;;5086433;28;20172;-40
2022/02/16 10:51:18;;;;;;;2.00;1.90;;;10.50;99.90;;;;;;5085729;28;20486;-40
2022/02/16 10:53:44;;;;;;;3.87;1.67;;;10.50;99.90;;;;;;5076640;28;20468;-42
2022/02/16 10:56:10;;;;;;;3.53;1.53;;;10.50;99.90;;;;;;5075962;28;20819;-41
2022/02/16 10:58:38;;;;;;;3.03;1.60;;;10.60;99.90;;;;;;5076957;28;20471;-42
2022/02/16 11:01:04;;;;;;;1.90;1.70;;;10.50;99.90;;;;;;5086264;28;20465;-41
2022/02/16 11:03:32;;;;;;;1.70;1.60;;;10.60;99.90;;;;;;5086017;28;20429;-43
2022/02/16 11:06:01;;;;;;;1.90;1.67;;;10.60;99.90;;;;;;5086777;28;20425;-40
2022/02/16 11:08:30;;;;;;;1.93;1.73;;;10.60;99.90;;;;;;5086224;28;20402;-40
2022/02/16 11:10:56;;;;;;;1.70;1.40;;;10.70;99.90;;;;;;5081313;28;20726;-39
2022/02/16 11:13:26;;;;;;;1.30;1.20;;;10.80;99.90;;;;;;5079175;28;20426;-39
2022/02/16 11:15:53;;;;;;;1.73;1.63;;;10.70;99.90;;;;;;5086484;28;20438;-40
2022/02/16 11:18:22;;;;;;;1.40;1.30;;;10.80;99.90;;;;;;5085806;28;20525;-42
2022/02/16 11:21:07;;;;;;;1.50;1.40;;;10.80;99.90;;;;;;5085838;28;20465;-41
2022/02/16 11:23:59;;;;;;;1.63;1.50;;;10.80;99.90;;;;;;5086364;28;20441;-39
2022/02/16 11:26:34;;;;;;;1.53;1.40;;;10.90;99.90;;;;;;5075461;28;20440;-40
2022/02/16 11:29:04;;;;;;;1.57;1.47;;;10.80;99.90;;;;;;5080142;28;20887;-40
2022/02/16 11:31:33;;;;;;;1.70;1.60;;;11.00;99.90;;;;;;5089541;28;20467;-40
2022/02/16 11:34:11;;;;;;;1.63;1.53;;;11.00;99.90;;;;;;5090075;28;20530;-41
2022/02/16 11:36:55;;;;;;;1.67;1.57;;;11.10;99.90;;;;;;5090262;28;20479;-43
2022/02/16 11:39:45;;;;;;;1.30;1.20;;;11.00;99.90;;;;;;5089872;28;20414;-41
2022/02/16 11:42:19;;;;;;;1.53;1.23;;;11.10;99.90;;;;;;5079520;28;20470;-40
2022/02/16 11:45:09;;;;;;;1.27;1.17;;;11.00;99.90;;;;;;5086203;28;20422;-43
2022/02/16 11:47:39;;;;;;;2.13;1.23;;;11.10;99.90;;;;;;5089645;28;20422;-42
2022/02/16 11:50:14;;;;;;;1.60;1.50;;;11.20;99.90;;;;;;5089034;28;20927;-40
2022/02/16 11:52:50;;;;;;;2.90;1.10;;;11.20;99.90;;;;;;5088050;28;20972;-40
2022/02/16 11:55:22;;;;;;;1.33;1.23;;;11.00;99.90;;;;;;5078870;28;20430;-40
2022/02/16 11:57:52;;;;;;;1.60;1.50;;;11.20;99.90;;;;;;5078481;28;20418;-42
2022/02/16 12:00:21;;;;;;;1.20;1.10;;;11.20;99.90;;;;;;5088956;28;20462;-40
2022/02/16 12:02:56;;;;;;;1.43;1.33;;;11.20;99.90;;;;;;5088914;28;20876;-43
2022/02/16 12:05:40;;;;;;;2.17;1.80;;;11.30;99.90;;;;;;5089697;28;20410;-41
2022/02/16 12:08:14;;;;;;;1.77;1.60;;;11.30;99.90;;;;;;5077115;28;20877;-40
2022/02/16 12:10:42;;;;;;;1.87;1.70;;;11.30;99.90;;;;;;5088754;28;20430;-40
2022/02/16 12:13:08;;;;;;;2.00;1.83;;;11.30;99.90;;;;;;5078727;28;20441;-40
2022/02/16 12:15:35;;;;;;;1.70;1.60;;;11.30;99.90;;;;;;5089276;28;20759;-40
2022/02/16 12:18:01;;;;;;;2.73;1.90;;;11.30;99.90;;;;;;5089117;28;20423;-39
2022/02/16 12:20:27;;;;;;;2.47;2.00;;;11.30;99.90;;;;;;5087147;28;20796;-42
2022/02/16 12:22:59;;;;;;;1.53;1.43;;;11.20;99.90;;;;;;5087708;28;20513;-40
2022/02/16 12:25:25;;;;;;;1.70;1.60;;;11.30;99.90;;;;;;5089181;28;20680;-40
2022/02/16 12:27:50;;;;;;;2.67;1.87;;;11.40;99.90;;;;;;5079581;28;20465;-40
2022/02/16 12:30:16;;;;;;;2.00;1.90;;;11.50;99.90;;;;;;5088213;28;20784;-40
2022/02/16 12:32:46;;;;;;;5.03;1.97;;;11.40;99.90;;;;;;5088709;28;20689;-42
2022/02/16 12:35:11;;;;;;;1.80;1.70;;;11.30;99.90;;;;;;5088449;28;20574;-40
2022/02/16 12:37:38;;;;;;;1.77;1.67;;;11.40;99.90;;;;;;5088678;28;20440;-40
2022/02/16 12:40:10;;;;;;;2.40;1.90;;;11.50;99.90;;;;;;5087846;28;20861;-42
2022/02/16 12:42:46;;;;;;;3.50;1.73;;;11.60;99.90;;;;;;5077456;28;20434;-40
2022/02/16 12:45:25;;;;;;;1.80;1.70;;;11.50;99.90;;;;;;5085317;28;20418;-39
2022/02/16 12:47:58;;;;;;;1.90;1.80;;;11.50;99.90;;;;;;5087829;28;20761;-40
2022/02/16 12:50:26;;;;;;;1.80;1.70;;;11.50;99.90;;;;;;5088194;28;20446;-40
2022/02/16 12:52:53;;;;;;;4.30;1.60;;;11.40;99.90;;;;;;5085662;28;20473;-40
2022/02/16 12:55:19;;;;;;;3.90;2.03;;;11.40;99.90;;;;;;5078112;28;20853;-40